sensor_id;sensor_type;location;lat;lon;timestamp;temperature;humidity
51215;DHT22;63849;47.546;19.254;2023-04-01T00:00:58;9.90;84.10
51215;DHT22;63849;47.546;19.254;2023-04-01T00:03:25;9.90;84.40
51215;DHT22;63849;47.546;19.254;2023-04-01T00:05:56;9.90;84.30
51215;DHT22;63849;47.546;19.254;2023-04-01T00:08:22;9.90;84.30
51215;DHT22;63849;47.546;19.254;2023-04-01T00:10:48;9.90;84.20
51215;DHT22;63849;47.546;19.254;2023-04-01T00:13:14;9.90;84.10
51215;DHT22;63849;47.546;19.254;2023-04-01T00:15:41;9.90;84.30
51215;DHT22;63849;47.546;19.254;2023-04-01T00:18:07;9.90;84.20
51215;DHT22;63849;47.546;19.254;2023-04-01T00:20:34;9.80;84.60
51215;DHT22;63849;47.546;19.254;2023-04-01T00:23:00;9.90;84.50
51215;DHT22;63849;47.546;19.254;2023-04-01T00:25:26;9.90;84.60
51215;DHT22;63849;47.546;19.254;2023-04-01T00:27:52;9.90;84.60
51215;DHT22;63849;47.546;19.254;2023-04-01T00:30:18;9.90;84.40
51215;DHT22;63849;47.546;19.254;2023-04-01T00:32:44;9.80;84.80
51215;DHT22;63849;47.546;19.254;2023-04-01T00:35:10;9.80;84.70
51215;DHT22;63849;47.546;19.254;2023-04-01T00:37:36;9.90;84.50
51215;DHT22;63849;47.546;19.254;2023-04-01T00:40:06;9.80;84.90
51215;DHT22;63849;47.546;19.254;2023-04-01T00:42:32;9.80;84.60
51215;DHT22;63849;47.546;19.254;2023-04-01T00:44:58;9.70;84.90
51215;DHT22;63849;47.546;19.254;2023-04-01T00:47:25;9.70;84.90
51215;DHT22;63849;47.546;19.254;2023-04-01T00:49:53;9.80;84.70
51215;DHT22;63849;47.546;19.254;2023-04-01T00:52:24;9.60;85.00
51215;DHT22;63849;47.546;19.254;2023-04-01T00:54:55;9.70;84.70
51215;DHT22;63849;47.546;19.254;2023-04-01T00:57:32;9.70;84.60
51215;DHT22;63849;47.546;19.254;2023-04-01T01:00:00;9.80;84.30
51215;DHT22;63849;47.546;19.254;2023-04-01T01:02:26;9.70;84.40
51215;DHT22;63849;47.546;19.254;2023-04-01T01:04:52;9.80;84.70
51215;DHT22;63849;47.546;19.254;2023-04-01T01:07:20;9.60;84.80
51215;DHT22;63849;47.546;19.254;2023-04-01T01:18:27;9.50;85.40
51215;DHT22;63849;47.546;19.254;2023-04-01T01:30:05;9.50;85.20
51215;DHT22;63849;47.546;19.254;2023-04-01T01:32:49;9.50;85.20
51215;DHT22;63849;47.546;19.254;2023-04-01T01:35:49;9.40;85.10
51215;DHT22;63849;47.546;19.254;2023-04-01T01:38:18;9.40;85.80
51215;DHT22;63849;47.546;19.254;2023-04-01T01:40:48;9.40;86.00
51215;DHT22;63849;47.546;19.254;2023-04-01T01:43:21;9.50;85.80
51215;DHT22;63849;47.546;19.254;2023-04-01T01:45:51;9.40;86.00
51215;DHT22;63849;47.546;19.254;2023-04-01T01:48:19;9.50;85.80
51215;DHT22;63849;47.546;19.254;2023-04-01T01:50:46;9.40;86.10
51215;DHT22;63849;47.546;19.254;2023-04-01T01:53:13;9.40;86.50
51215;DHT22;63849;47.546;19.254;2023-04-01T01:55:47;9.40;86.40
51215;DHT22;63849;47.546;19.254;2023-04-01T01:58:43;9.40;86.20
51215;DHT22;63849;47.546;19.254;2023-04-01T02:01:13;9.50;86.20
51215;DHT22;63849;47.546;19.254;2023-04-01T02:03:42;9.40;86.10
51215;DHT22;63849;47.546;19.254;2023-04-01T02:06:11;9.50;86.00
51215;DHT22;63849;47.546;19.254;2023-04-01T02:08:57;9.50;86.30
51215;DHT22;63849;47.546;19.254;2023-04-01T02:11:38;9.60;86.20
51215;DHT22;63849;47.546;19.254;2023-04-01T02:14:23;9.50;86.20
51215;DHT22;63849;47.546;19.254;2023-04-01T02:17:03;9.50;86.40
51215;DHT22;63849;47.546;19.254;2023-04-01T02:19:40;9.60;86.30
51215;DHT22;63849;47.546;19.254;2023-04-01T02:22:13;9.50;86.70
51215;DHT22;63849;47.546;19.254;2023-04-01T02:24:40;9.50;86.70
51215;DHT22;63849;47.546;19.254;2023-04-01T02:27:11;9.60;86.70
51215;DHT22;63849;47.546;19.254;2023-04-01T02:29:39;9.60;86.60
51215;DHT22;63849;47.546;19.254;2023-04-01T02:32:06;9.60;86.40
51215;DHT22;63849;47.546;19.254;2023-04-01T02:34:33;9.50;86.80
51215;DHT22;63849;47.546;19.254;2023-04-01T02:36:58;9.50;86.70
51215;DHT22;63849;47.546;19.254;2023-04-01T02:39:25;9.50;86.90
51215;DHT22;63849;47.546;19.254;2023-04-01T02:41:54;9.40;87.10
51215;DHT22;63849;47.546;19.254;2023-04-01T02:44:19;9.60;86.40
51215;DHT22;63849;47.546;19.254;2023-04-01T02:46:45;9.50;86.50
51215;DHT22;63849;47.546;19.254;2023-04-01T02:49:11;9.70;85.70
51215;DHT22;63849;47.546;19.254;2023-04-01T02:51:37;9.60;85.50
51215;DHT22;63849;47.546;19.254;2023-04-01T02:54:04;9.60;85.80
51215;DHT22;63849;47.546;19.254;2023-04-01T02:56:33;9.50;85.70
51215;DHT22;63849;47.546;19.254;2023-04-01T02:58:59;9.40;85.80
51215;DHT22;63849;47.546;19.254;2023-04-01T03:01:24;9.30;86.40
51215;DHT22;63849;47.546;19.254;2023-04-01T03:03:50;9.20;86.30
51215;DHT22;63849;47.546;19.254;2023-04-01T03:06:16;9.40;86.10
51215;DHT22;63849;47.546;19.254;2023-04-01T03:08:42;9.40;85.70
51215;DHT22;63849;47.546;19.254;2023-04-01T03:11:09;9.30;85.70
51215;DHT22;63849;47.546;19.254;2023-04-01T03:13:36;9.40;85.40
51215;DHT22;63849;47.546;19.254;2023-04-01T03:16:02;9.30;85.50
51215;DHT22;63849;47.546;19.254;2023-04-01T03:18:28;9.30;85.60
51215;DHT22;63849;47.546;19.254;2023-04-01T03:20:54;9.40;85.90
51215;DHT22;63849;47.546;19.254;2023-04-01T03:23:20;9.50;85.60
51215;DHT22;63849;47.546;19.254;2023-04-01T03:25:47;9.40;85.80
51215;DHT22;63849;47.546;19.254;2023-04-01T03:28:13;9.30;86.40
51215;DHT22;63849;47.546;19.254;2023-04-01T03:30:39;9.40;85.80
51215;DHT22;63849;47.546;19.254;2023-04-01T03:33:06;9.40;86.50
51215;DHT22;63849;47.546;19.254;2023-04-01T03:35:32;9.50;86.10
51215;DHT22;63849;47.546;19.254;2023-04-01T03:37:58;9.50;86.00
51215;DHT22;63849;47.546;19.254;2023-04-01T03:40:23;9.60;85.60
51215;DHT22;63849;47.546;19.254;2023-04-01T03:42:51;9.60;85.10
51215;DHT22;63849;47.546;19.254;2023-04-01T03:45:18;9.60;84.60
51215;DHT22;63849;47.546;19.254;2023-04-01T03:47:44;9.40;85.10
51215;DHT22;63849;47.546;19.254;2023-04-01T03:50:10;9.30;85.20
51215;DHT22;63849;47.546;19.254;2023-04-01T03:52:36;9.30;85.00
51215;DHT22;63849;47.546;19.254;2023-04-01T03:55:02;9.30;85.40
51215;DHT22;63849;47.546;19.254;2023-04-01T03:57:30;9.30;84.70
51215;DHT22;63849;47.546;19.254;2023-04-01T03:59:56;9.40;85.10
51215;DHT22;63849;47.546;19.254;2023-04-01T04:02:23;9.40;84.60
51215;DHT22;63849;47.546;19.254;2023-04-01T04:04:49;9.40;84.50
51215;DHT22;63849;47.546;19.254;2023-04-01T04:07:15;9.40;84.60
51215;DHT22;63849;47.546;19.254;2023-04-01T04:09:42;9.40;84.60
51215;DHT22;63849;47.546;19.254;2023-04-01T04:12:08;9.40;84.40
51215;DHT22;63849;47.546;19.254;2023-04-01T04:14:34;9.20;84.70
51215;DHT22;63849;47.546;19.254;2023-04-01T04:17:00;9.20;85.10
51215;DHT22;63849;47.546;19.254;2023-04-01T04:19:25;9.00;85.00
51215;DHT22;63849;47.546;19.254;2023-04-01T04:21:51;9.10;85.00
51215;DHT22;63849;47.546;19.254;2023-04-01T04:24:17;9.20;84.80
51215;DHT22;63849;47.546;19.254;2023-04-01T04:26:43;9.10;84.70
51215;DHT22;63849;47.546;19.254;2023-04-01T04:29:08;9.00;84.40
51215;DHT22;63849;47.546;19.254;2023-04-01T04:31:34;9.00;84.70
51215;DHT22;63849;47.546;19.254;2023-04-01T04:34:02;9.10;84.50
51215;DHT22;63849;47.546;19.254;2023-04-01T04:36:28;9.10;84.30
51215;DHT22;63849;47.546;19.254;2023-04-01T04:38:53;9.10;84.20
51215;DHT22;63849;47.546;19.254;2023-04-01T04:41:20;8.90;84.60
51215;DHT22;63849;47.546;19.254;2023-04-01T04:43:55;8.90;84.60
51215;DHT22;63849;47.546;19.254;2023-04-01T04:46:21;8.80;85.10
51215;DHT22;63849;47.546;19.254;2023-04-01T04:48:47;9.00;85.20
51215;DHT22;63849;47.546;19.254;2023-04-01T04:51:16;9.10;84.20
51215;DHT22;63849;47.546;19.254;2023-04-01T04:53:42;8.80;85.20
51215;DHT22;63849;47.546;19.254;2023-04-01T04:56:08;8.90;85.80
51215;DHT22;63849;47.546;19.254;2023-04-01T04:58:34;9.10;85.50
51215;DHT22;63849;47.546;19.254;2023-04-01T05:01:09;9.10;85.20
51215;DHT22;63849;47.546;19.254;2023-04-01T05:03:36;8.90;85.30
51215;DHT22;63849;47.546;19.254;2023-04-01T05:06:02;8.80;86.10
51215;DHT22;63849;47.546;19.254;2023-04-01T05:08:28;8.90;86.30
51215;DHT22;63849;47.546;19.254;2023-04-01T05:10:54;8.90;86.30
51215;DHT22;63849;47.546;19.254;2023-04-01T05:13:20;9.20;85.40
51215;DHT22;63849;47.546;19.254;2023-04-01T05:15:46;9.20;85.60
51215;DHT22;63849;47.546;19.254;2023-04-01T05:18:12;9.40;85.00
51215;DHT22;63849;47.546;19.254;2023-04-01T05:20:38;9.40;85.10
51215;DHT22;63849;47.546;19.254;2023-04-01T05:23:07;9.40;85.40
51215;DHT22;63849;47.546;19.254;2023-04-01T05:25:37;9.50;85.20
51215;DHT22;63849;47.546;19.254;2023-04-01T05:28:03;9.60;84.80
51215;DHT22;63849;47.546;19.254;2023-04-01T05:30:28;9.60;85.10
51215;DHT22;63849;47.546;19.254;2023-04-01T05:32:54;9.50;85.40
51215;DHT22;63849;47.546;19.254;2023-04-01T05:35:21;9.70;84.90
51215;DHT22;63849;47.546;19.254;2023-04-01T05:37:58;9.70;85.50
51215;DHT22;63849;47.546;19.254;2023-04-01T05:40:24;9.70;85.50
51215;DHT22;63849;47.546;19.254;2023-04-01T05:42:50;9.90;85.00
51215;DHT22;63849;47.546;19.254;2023-04-01T05:45:16;9.80;85.30
51215;DHT22;63849;47.546;19.254;2023-04-01T05:47:42;9.90;85.10
51215;DHT22;63849;47.546;19.254;2023-04-01T05:50:09;10.30;84.20
51215;DHT22;63849;47.546;19.254;2023-04-01T05:52:37;10.50;83.70
51215;DHT22;63849;47.546;19.254;2023-04-01T05:55:04;10.60;82.90
51215;DHT22;63849;47.546;19.254;2023-04-01T05:57:30;10.60;83.50
51215;DHT22;63849;47.546;19.254;2023-04-01T05:59:56;10.90;82.20
51215;DHT22;63849;47.546;19.254;2023-04-01T06:02:22;11.00;81.80
51215;DHT22;63849;47.546;19.254;2023-04-01T06:04:48;11.20;80.00
51215;DHT22;63849;47.546;19.254;2023-04-01T06:07:17;11.30;80.40
51215;DHT22;63849;47.546;19.254;2023-04-01T06:09:44;11.40;79.50
51215;DHT22;63849;47.546;19.254;2023-04-01T06:15:30;11.50;79.40
51215;DHT22;63849;47.546;19.254;2023-04-01T06:21:05;12.00;76.90
51215;DHT22;63849;47.546;19.254;2023-04-01T06:29:26;12.20;76.20
51215;DHT22;63849;47.546;19.254;2023-04-01T06:42:42;12.50;76.20
51215;DHT22;63849;47.546;19.254;2023-04-01T06:45:42;12.60;75.80
51215;DHT22;63849;47.546;19.254;2023-04-01T06:48:43;12.70;75.60
51215;DHT22;63849;47.546;19.254;2023-04-01T06:51:24;12.80;74.30
51215;DHT22;63849;47.546;19.254;2023-04-01T06:56:42;13.00;74.00
51215;DHT22;63849;47.546;19.254;2023-04-01T06:59:20;13.20;71.30
51215;DHT22;63849;47.546;19.254;2023-04-01T07:01:53;13.10;74.50
51215;DHT22;63849;47.546;19.254;2023-04-01T07:04:29;13.20;74.00
51215;DHT22;63849;47.546;19.254;2023-04-01T07:06:59;13.30;72.90
51215;DHT22;63849;47.546;19.254;2023-04-01T07:09:38;13.30;73.30
51215;DHT22;63849;47.546;19.254;2023-04-01T07:14:58;13.40;71.00
51215;DHT22;63849;47.546;19.254;2023-04-01T07:17:30;13.40;69.00
51215;DHT22;63849;47.546;19.254;2023-04-01T07:23:04;13.30;70.60
51215;DHT22;63849;47.546;19.254;2023-04-01T07:25:38;13.40;68.30
51215;DHT22;63849;47.546;19.254;2023-04-01T07:28:11;13.40;67.50
51215;DHT22;63849;47.546;19.254;2023-04-01T07:33:38;13.40;68.50
51215;DHT22;63849;47.546;19.254;2023-04-01T07:36:37;13.50;67.10
51215;DHT22;63849;47.546;19.254;2023-04-01T07:47:49;13.40;66.40
51215;DHT22;63849;47.546;19.254;2023-04-01T07:50:32;13.40;66.30
51215;DHT22;63849;47.546;19.254;2023-04-01T07:53:17;13.60;66.50
51215;DHT22;63849;47.546;19.254;2023-04-01T07:58:29;13.70;67.50
51215;DHT22;63849;47.546;19.254;2023-04-01T08:08:51;14.10;64.90
51215;DHT22;63849;47.546;19.254;2023-04-01T08:14:17;13.90;66.40
51215;DHT22;63849;47.546;19.254;2023-04-01T08:17:03;13.90;64.40
51215;DHT22;63849;47.546;19.254;2023-04-01T08:20:04;13.90;65.60
51215;DHT22;63849;47.546;19.254;2023-04-01T08:22:40;14.00;64.50
51215;DHT22;63849;47.546;19.254;2023-04-01T08:25:14;14.00;64.00
51215;DHT22;63849;47.546;19.254;2023-04-01T08:27:44;14.00;64.90
51215;DHT22;63849;47.546;19.254;2023-04-01T08:30:37;13.90;63.60
51215;DHT22;63849;47.546;19.254;2023-04-01T08:33:26;13.60;63.70
51215;DHT22;63849;47.546;19.254;2023-04-01T08:36:03;13.50;64.00
51215;DHT22;63849;47.546;19.254;2023-04-01T08:38:52;13.40;65.40
51215;DHT22;63849;47.546;19.254;2023-04-01T08:44:26;13.40;65.40
51215;DHT22;63849;47.546;19.254;2023-04-01T08:52:37;13.30;63.50
51215;DHT22;63849;47.546;19.254;2023-04-01T08:55:40;13.20;65.00
51215;DHT22;63849;47.546;19.254;2023-04-01T08:58:32;13.10;64.20
51215;DHT22;63849;47.546;19.254;2023-04-01T09:01:24;13.10;65.20
51215;DHT22;63849;47.546;19.254;2023-04-01T09:12:43;13.50;64.80
51215;DHT22;63849;47.546;19.254;2023-04-01T09:15:25;13.60;63.60
51215;DHT22;63849;47.546;19.254;2023-04-01T09:31:57;13.90;63.80
51215;DHT22;63849;47.546;19.254;2023-04-01T09:34:27;13.90;63.60
51215;DHT22;63849;47.546;19.254;2023-04-01T09:40:46;13.90;64.30
51215;DHT22;63849;47.546;19.254;2023-04-01T09:46:11;14.20;64.80
51215;DHT22;63849;47.546;19.254;2023-04-01T09:54:31;14.40;63.90
51215;DHT22;63849;47.546;19.254;2023-04-01T09:59:57;14.30;63.10
51215;DHT22;63849;47.546;19.254;2023-04-01T10:02:53;14.30;62.80
51215;DHT22;63849;47.546;19.254;2023-04-01T10:14:15;14.30;62.20
51215;DHT22;63849;47.546;19.254;2023-04-01T10:22:41;14.20;62.60
51215;DHT22;63849;47.546;19.254;2023-04-01T10:36:56;14.10;63.90
51215;DHT22;63849;47.546;19.254;2023-04-01T10:39:30;13.90;63.60
51215;DHT22;63849;47.546;19.254;2023-04-01T10:47:55;13.60;64.30
51215;DHT22;63849;47.546;19.254;2023-04-01T10:50:53;13.70;65.40
51215;DHT22;63849;47.546;19.254;2023-04-01T11:12:22;14.10;65.40
51215;DHT22;63849;47.546;19.254;2023-04-01T11:18:06;14.00;64.30
51215;DHT22;63849;47.546;19.254;2023-04-01T11:38:42;14.20;61.30
51215;DHT22;63849;47.546;19.254;2023-04-01T11:41:26;14.30;64.30
51215;DHT22;63849;47.546;19.254;2023-04-01T11:44:18;14.40;62.30
51215;DHT22;63849;47.546;19.254;2023-04-01T11:47:22;14.40;63.40
51215;DHT22;63849;47.546;19.254;2023-04-01T11:58:36;13.90;62.40
51215;DHT22;63849;47.546;19.254;2023-04-01T12:01:31;13.80;63.00
51215;DHT22;63849;47.546;19.254;2023-04-01T12:04:05;13.90;63.60
51215;DHT22;63849;47.546;19.254;2023-04-01T12:18:31;14.10;62.20
51215;DHT22;63849;47.546;19.254;2023-04-01T12:21:23;14.20;63.60
51215;DHT22;63849;47.546;19.254;2023-04-01T12:35:41;14.40;61.60
51215;DHT22;63849;47.546;19.254;2023-04-01T12:44:07;14.30;62.10
51215;DHT22;63849;47.546;19.254;2023-04-01T12:52:39;14.40;60.60
51215;DHT22;63849;47.546;19.254;2023-04-01T13:03:52;14.30;59.70
51215;DHT22;63849;47.546;19.254;2023-04-01T13:15:54;14.60;59.30
51215;DHT22;63849;47.546;19.254;2023-04-01T13:18:33;14.80;58.40
51215;DHT22;63849;47.546;19.254;2023-04-01T13:21:28;14.70;55.00
51215;DHT22;63849;47.546;19.254;2023-04-01T13:29:44;14.70;57.40
51215;DHT22;63849;47.546;19.254;2023-04-01T13:45:19;14.50;54.90
51215;DHT22;63849;47.546;19.254;2023-04-01T13:48:12;14.40;54.30
51215;DHT22;63849;47.546;19.254;2023-04-01T13:59:38;14.10;56.70
51215;DHT22;63849;47.546;19.254;2023-04-01T14:02:24;14.20;56.10
51215;DHT22;63849;47.546;19.254;2023-04-01T14:11:56;14.30;56.70
51215;DHT22;63849;47.546;19.254;2023-04-01T14:37:12;14.20;57.50
51215;DHT22;63849;47.546;19.254;2023-04-01T14:45:20;14.30;59.80
51215;DHT22;63849;47.546;19.254;2023-04-01T14:47:51;14.40;59.60
51215;DHT22;63849;47.546;19.254;2023-04-01T14:50:28;14.40;59.80
51215;DHT22;63849;47.546;19.254;2023-04-01T14:58:16;14.30;59.60
51215;DHT22;63849;47.546;19.254;2023-04-01T15:03:23;14.30;59.40
51215;DHT22;63849;47.546;19.254;2023-04-01T15:09:18;14.30;59.30
51215;DHT22;63849;47.546;19.254;2023-04-01T15:17:43;14.30;59.60
51215;DHT22;63849;47.546;19.254;2023-04-01T15:25:43;14.30;59.00
51215;DHT22;63849;47.546;19.254;2023-04-01T15:36:46;14.30;58.30
51215;DHT22;63849;47.546;19.254;2023-04-01T15:40:08;14.20;56.80
51215;DHT22;63849;47.546;19.254;2023-04-01T15:42:26;14.20;56.80
51215;DHT22;63849;47.546;19.254;2023-04-01T15:54:06;14.20;57.80
51215;DHT22;63849;47.546;19.254;2023-04-01T15:57:02;14.30;57.40
51215;DHT22;63849;47.546;19.254;2023-04-01T16:02:49;14.10;58.50
51215;DHT22;63849;47.546;19.254;2023-04-01T16:05:27;14.10;59.30
51215;DHT22;63849;47.546;19.254;2023-04-01T16:11:11;14.00;58.40
51215;DHT22;63849;47.546;19.254;2023-04-01T16:14:24;13.90;58.60
51215;DHT22;63849;47.546;19.254;2023-04-01T16:17:00;13.90;59.00
51215;DHT22;63849;47.546;19.254;2023-04-01T16:22:16;13.90;59.20
51215;DHT22;63849;47.546;19.254;2023-04-01T16:30:55;13.80;60.20
51215;DHT22;63849;47.546;19.254;2023-04-01T16:35:59;13.70;59.60
51215;DHT22;63849;47.546;19.254;2023-04-01T16:44:25;13.50;60.60
51215;DHT22;63849;47.546;19.254;2023-04-01T16:46:56;13.50;61.00
51215;DHT22;63849;47.546;19.254;2023-04-01T16:49:49;13.50;60.90
51215;DHT22;63849;47.546;19.254;2023-04-01T16:52:34;13.40;61.20
51215;DHT22;63849;47.546;19.254;2023-04-01T16:55:12;13.40;61.40
51215;DHT22;63849;47.546;19.254;2023-04-01T17:00:26;13.30;61.40
51215;DHT22;63849;47.546;19.254;2023-04-01T17:08:31;13.10;60.80
51215;DHT22;63849;47.546;19.254;2023-04-01T17:11:09;13.10;61.50
51215;DHT22;63849;47.546;19.254;2023-04-01T17:13:54;13.00;61.30
51215;DHT22;63849;47.546;19.254;2023-04-01T17:28:15;12.80;61.90
51215;DHT22;63849;47.546;19.254;2023-04-01T17:39:35;12.60;62.60
51215;DHT22;63849;47.546;19.254;2023-04-01T17:41:42;12.50;62.80
51215;DHT22;63849;47.546;19.254;2023-04-01T17:44:38;12.40;63.10
51215;DHT22;63849;47.546;19.254;2023-04-01T17:49:57;12.40;63.20
51215;DHT22;63849;47.546;19.254;2023-04-01T17:52:39;12.40;63.30
51215;DHT22;63849;47.546;19.254;2023-04-01T17:58:04;12.40;63.40
51215;DHT22;63849;47.546;19.254;2023-04-01T18:03:55;12.30;63.20
51215;DHT22;63849;47.546;19.254;2023-04-01T18:18:52;12.00;63.90
51215;DHT22;63849;47.546;19.254;2023-04-01T18:27:18;11.80;65.00
51215;DHT22;63849;47.546;19.254;2023-04-01T18:35:34;11.60;65.20
51215;DHT22;63849;47.546;19.254;2023-04-01T18:38:16;11.70;64.80
51215;DHT22;63849;47.546;19.254;2023-04-01T18:41:00;11.60;65.20
51215;DHT22;63849;47.546;19.254;2023-04-01T18:43:54;11.70;64.70
51215;DHT22;63849;47.546;19.254;2023-04-01T18:52:40;11.60;64.70
51215;DHT22;63849;47.546;19.254;2023-04-01T18:55:33;11.60;64.90
51215;DHT22;63849;47.546;19.254;2023-04-01T18:58:25;11.50;65.50
51215;DHT22;63849;47.546;19.254;2023-04-01T19:01:06;11.40;65.50
51215;DHT22;63849;47.546;19.254;2023-04-01T19:06:40;11.30;65.70
51215;DHT22;63849;47.546;19.254;2023-04-01T19:14:44;11.30;65.80
51215;DHT22;63849;47.546;19.254;2023-04-01T19:20:26;11.30;66.40
51215;DHT22;63849;47.546;19.254;2023-04-01T19:31:07;11.20;66.70
51215;DHT22;63849;47.546;19.254;2023-04-01T19:33:52;11.10;66.90
51215;DHT22;63849;47.546;19.254;2023-04-01T19:36:55;11.00;67.40
51215;DHT22;63849;47.546;19.254;2023-04-01T19:53:30;10.80;68.40
51215;DHT22;63849;47.546;19.254;2023-04-01T19:56:29;10.90;68.10
51215;DHT22;63849;47.546;19.254;2023-04-01T20:01:43;10.80;68.20
51215;DHT22;63849;47.546;19.254;2023-04-01T20:04:20;10.80;68.40
51215;DHT22;63849;47.546;19.254;2023-04-01T20:09:53;10.70;69.40
51215;DHT22;63849;47.546;19.254;2023-04-01T20:12:54;10.70;68.60
51215;DHT22;63849;47.546;19.254;2023-04-01T20:15:40;10.70;68.70
51215;DHT22;63849;47.546;19.254;2023-04-01T20:18:26;10.70;68.80
51215;DHT22;63849;47.546;19.254;2023-04-01T20:21:05;10.50;69.10
51215;DHT22;63849;47.546;19.254;2023-04-01T20:26:29;10.50;69.60
51215;DHT22;63849;47.546;19.254;2023-04-01T20:31:44;10.40;69.60
51215;DHT22;63849;47.546;19.254;2023-04-01T20:34:35;10.40;70.10
51215;DHT22;63849;47.546;19.254;2023-04-01T20:37:23;10.40;70.20
51215;DHT22;63849;47.546;19.254;2023-04-01T20:40:28;10.30;70.00
51215;DHT22;63849;47.546;19.254;2023-04-01T20:51:30;10.30;70.40
51215;DHT22;63849;47.546;19.254;2023-04-01T20:54:17;10.30;70.60
51215;DHT22;63849;47.546;19.254;2023-04-01T20:56:55;10.30;70.50
51215;DHT22;63849;47.546;19.254;2023-04-01T20:59:44;10.30;70.50
51215;DHT22;63849;47.546;19.254;2023-04-01T21:11:08;10.10;71.10
51215;DHT22;63849;47.546;19.254;2023-04-01T21:14:31;9.90;71.60
51215;DHT22;63849;47.546;19.254;2023-04-01T21:19:03;9.80;72.20
51215;DHT22;63849;47.546;19.254;2023-04-01T21:27:23;9.90;72.10
51215;DHT22;63849;47.546;19.254;2023-04-01T21:30:01;9.90;72.10
51215;DHT22;63849;47.546;19.254;2023-04-01T21:41:00;9.50;73.30
51215;DHT22;63849;47.546;19.254;2023-04-01T21:57:45;9.60;72.70
51215;DHT22;63849;47.546;19.254;2023-04-01T22:00:24;9.50;73.60
51215;DHT22;63849;47.546;19.254;2023-04-01T22:05:52;9.40;74.00
51215;DHT22;63849;47.546;19.254;2023-04-01T22:11:04;9.50;74.00
51215;DHT22;63849;47.546;19.254;2023-04-01T22:13:41;9.50;73.90
51215;DHT22;63849;47.546;19.254;2023-04-01T22:16:52;9.50;74.20
51215;DHT22;63849;47.546;19.254;2023-04-01T22:19:28;9.50;74.40
51215;DHT22;63849;47.546;19.254;2023-04-01T22:25:08;9.50;74.30
51215;DHT22;63849;47.546;19.254;2023-04-01T22:27:57;9.50;74.60
51215;DHT22;63849;47.546;19.254;2023-04-01T22:32:51;9.50;74.20
51215;DHT22;63849;47.546;19.254;2023-04-01T22:43:06;9.60;73.80
51215;DHT22;63849;47.546;19.254;2023-04-01T22:49:00;9.50;73.90
51215;DHT22;63849;47.546;19.254;2023-04-01T22:56:53;9.40;73.90
51215;DHT22;63849;47.546;19.254;2023-04-01T22:59:39;9.40;73.80
51215;DHT22;63849;47.546;19.254;2023-04-01T23:02:18;9.40;73.90
51215;DHT22;63849;47.546;19.254;2023-04-01T23:04:53;9.40;74.20
51215;DHT22;63849;47.546;19.254;2023-04-01T23:10:38;9.50;73.80
51215;DHT22;63849;47.546;19.254;2023-04-01T23:13:09;9.50;73.70
51215;DHT22;63849;47.546;19.254;2023-04-01T23:15:37;9.50;73.80
51215;DHT22;63849;47.546;19.254;2023-04-01T23:18:05;9.30;73.80
51215;DHT22;63849;47.546;19.254;2023-04-01T23:21:11;9.30;74.40
51215;DHT22;63849;47.546;19.254;2023-04-01T23:23:48;9.30;74.20
51215;DHT22;63849;47.546;19.254;2023-04-01T23:29:07;9.20;74.60
51215;DHT22;63849;47.546;19.254;2023-04-01T23:31:45;9.20;74.40
51215;DHT22;63849;47.546;19.254;2023-04-01T23:36:40;9.20;74.80
51215;DHT22;63849;47.546;19.254;2023-04-01T23:39:17;9.10;74.40
51215;DHT22;63849;47.546;19.254;2023-04-01T23:41:46;9.10;74.70
51215;DHT22;63849;47.546;19.254;2023-04-01T23:44:13;9.10;74.60
51215;DHT22;63849;47.546;19.254;2023-04-01T23:46:40;9.00;74.40
51215;DHT22;63849;47.546;19.254;2023-04-01T23:49:19;9.00;74.80
51215;DHT22;63849;47.546;19.254;2023-04-01T23:51:53;8.80;74.60
51215;DHT22;63849;47.546;19.254;2023-04-01T23:54:29;8.80;74.80
51215;DHT22;63849;47.546;19.254;2023-04-01T23:56:56;8.80;74.90
51215;DHT22;63849;47.546;19.254;2023-04-01T23:59:35;8.80;75.20
